Time;durP1;ratioP1;P1;durP2;ratioP2;P2;SDS_P1;SDS_P2;PMS_P1;PMS_P2;Temp;Humidity;BMP_temperature;BMP_pressure;BME280_temperature;BME280_humidity;BME280_pressure;Samples;Min_cycle;Max_cycle;Signal;HPM_P1;HPM_P2
2022/11/01 00:00:32;;;;;;;33.95;16.67;;;;;;;;;;5060104;28;20068;-80
2022/11/01 00:03:17;;;;;;;37.15;16.92;;;;;;;;;;5053859;28;20044;-80
2022/11/01 00:06:03;;;;;;;45.22;19.17;;;;;;;;;;5060048;28;20380;-79
2022/11/01 00:08:49;;;;;;;56.20;23.88;;;;;;;;;;5060428;28;20388;-80
2022/11/01 00:11:38;;;;;;;58.13;25.27;;;;;;;;;;5073752;28;20045;-80
2022/11/01 00:14:23;;;;;;;61.33;27.00;;;;;;;;;;5053613;28;20041;-80
2022/11/01 00:17:09;;;;;;;76.97;29.40;;;;;;;;;;5053664;28;20056;-79
2022/11/01 00:19:58;;;;;;;68.22;27.80;;;;;;;;;;5060178;28;20380;-78
2022/11/01 00:22:44;;;;;;;57.63;24.77;;;;;;;;;;5060276;28;20412;-80
2022/11/01 00:25:32;;;;;;;57.00;24.48;;;;;;;;;;5060234;28;20421;-79
2022/11/01 00:28:19;;;;;;;62.30;24.40;;;;;;;;;;5059942;28;20472;-77
2022/11/01 00:31:04;;;;;;;60.38;23.65;;;;;;;;;;5060462;28;20468;-79
2022/11/01 00:33:50;;;;;;;53.13;21.55;;;;;;;;;;5053795;28;20028;-78
2022/11/01 00:36:39;;;;;;;54.50;21.90;;;;;;;;;;5059857;28;20052;-77
2022/11/01 00:39:26;;;;;;;50.20;20.80;;;;;;;;;;5060443;28;20041;-79
2022/11/01 00:42:20;;;;;;;35.67;18.00;;;;;;;;;;5059538;28;20045;-77
2022/11/01 00:45:06;;;;;;;34.40;15.93;;;;;;;;;;5060139;28;20052;-77
2022/11/01 00:47:53;;;;;;;33.65;17.02;;;;;;;;;;5059107;28;20045;-79
2022/11/01 00:50:39;;;;;;;37.85;16.30;;;;;;;;;;5056528;28;20038;-81
2022/11/01 00:53:24;;;;;;;32.38;16.23;;;;;;;;;;5062337;28;20045;-80
2022/11/01 00:56:09;;;;;;;33.83;15.90;;;;;;;;;;5064285;28;20045;-79
2022/11/01 00:58:55;;;;;;;41.53;17.90;;;;;;;;;;5064387;28;20053;-78
2022/11/01 01:01:41;;;;;;;31.38;14.82;;;;;;;;;;5063913;28;20387;-78
2022/11/01 01:04:26;;;;;;;34.05;14.27;;;;;;;;;;5056373;28;20045;-77
2022/11/01 01:07:12;;;;;;;34.45;16.58;;;;;;;;;;5063167;28;20044;-77
2022/11/01 01:09:58;;;;;;;49.22;26.17;;;;;;;;;;5062912;28;20036;-77
2022/11/01 01:12:43;;;;;;;33.95;17.50;;;;;;;;;;5063523;28;20040;-78
2022/11/01 01:15:28;;;;;;;34.15;18.42;;;;;;;;;;5057155;28;20041;-77
2022/11/01 01:18:15;;;;;;;29.02;14.32;;;;;;;;;;5056251;28;20041;-79
2022/11/01 01:21:02;;;;;;;42.35;18.92;;;;;;;;;;5056913;28;20041;-80
2022/11/01 01:23:47;;;;;;;32.67;14.30;;;;;;;;;;5063054;28;20036;-78
2022/11/01 01:26:33;;;;;;;24.77;12.52;;;;;;;;;;5063382;28;20037;-79
2022/11/01 01:29:18;;;;;;;23.13;11.90;;;;;;;;;;5056718;28;20460;-79
2022/11/01 01:32:04;;;;;;;18.20;11.05;;;;;;;;;;5056024;28;20380;-80
2022/11/01 01:34:50;;;;;;;24.17;12.77;;;;;;;;;;5056532;28;20040;-80
2022/11/01 01:37:36;;;;;;;27.77;13.45;;;;;;;;;;5056197;28;20372;-80
2022/11/01 01:40:21;;;;;;;28.00;13.77;;;;;;;;;;5063708;28;20040;-79
2022/11/01 01:43:10;;;;;;;26.95;13.98;;;;;;;;;;5056947;28;20037;-78
2022/11/01 01:45:56;;;;;;;29.40;14.38;;;;;;;;;;5062721;28;20041;-78
2022/11/01 01:48:45;;;;;;;24.90;14.50;;;;;;;;;;5056330;28;20056;-80
2022/11/01 01:51:30;;;;;;;30.40;15.25;;;;;;;;;;5057085;28;20380;-79
2022/11/01 01:54:16;;;;;;;37.05;16.73;;;;;;;;;;5063117;28;20044;-79
2022/11/01 01:57:02;;;;;;;29.27;16.88;;;;;;;;;;5062981;28;20044;-79
2022/11/01 01:59:47;;;;;;;40.63;18.42;;;;;;;;;;5055754;28;20048;-78
2022/11/01 02:02:32;;;;;;;31.42;17.15;;;;;;;;;;5055690;28;20049;-79
2022/11/01 02:05:45;;;;;;;31.27;16.05;;;;;;;;;;5061444;28;20376;-79
2022/11/01 02:08:31;;;;;;;30.83;15.40;;;;;;;;;;5062623;28;20037;-80
2022/11/01 02:11:19;;;;;;;29.75;15.63;;;;;;;;;;5055796;28;20049;-80
2022/11/01 02:14:04;;;;;;;34.63;14.48;;;;;;;;;;5061973;28;20037;-81
2022/11/01 02:17:26;;;;;;;31.48;16.80;;;;;;;;;;5061421;28;20041;-78
2022/11/01 02:20:44;;;;;;;29.25;15.98;;;;;;;;;;5055386;28;20041;-79
2022/11/01 02:24:08;;;;;;;48.65;22.65;;;;;;;;;;5062411;28;20041;-80
2022/11/01 02:27:24;;;;;;;45.53;21.55;;;;;;;;;;5062113;28;20045;-80
2022/11/01 02:30:20;;;;;;;37.33;18.88;;;;;;;;;;5055636;28;20049;-79
2022/11/01 02:33:15;;;;;;;33.97;16.08;;;;;;;;;;5062276;28;20045;-79
2022/11/01 02:36:10;;;;;;;26.70;13.77;;;;;;;;;;5062256;28;20045;-77
2022/11/01 02:39:03;;;;;;;23.33;10.57;;;;;;;;;;5062063;28;20041;-78
2022/11/01 02:41:56;;;;;;;20.77;9.25;;;;;;;;;;5054870;28;20045;-79
2022/11/01 02:44:47;;;;;;;20.13;10.60;;;;;;;;;;5061599;28;20468;-80
2022/11/01 02:47:34;;;;;;;20.58;10.88;;;;;;;;;;5061350;28;20391;-79
2022/11/01 02:50:20;;;;;;;22.65;11.77;;;;;;;;;;5059055;28;20037;-79
2022/11/01 02:53:06;;;;;;;23.88;10.40;;;;;;;;;;5055121;28;20471;-80
2022/11/01 02:55:52;;;;;;;21.38;10.73;;;;;;;;;;5060535;28;20044;-78
2022/11/01 02:58:37;;;;;;;21.33;10.98;;;;;;;;;;5061609;28;20045;-80
2022/11/01 03:01:26;;;;;;;18.23;10.23;;;;;;;;;;5054759;28;20048;-79
2022/11/01 03:04:11;;;;;;;21.55;11.18;;;;;;;;;;5061516;28;20041;-78
2022/11/01 03:07:00;;;;;;;22.85;10.70;;;;;;;;;;5055073;28;20041;-80
2022/11/01 03:09:45;;;;;;;19.48;10.23;;;;;;;;;;5062144;28;20064;-78
2022/11/01 03:12:33;;;;;;;21.52;11.32;;;;;;;;;;5060405;28;20049;-79
2022/11/01 03:15:26;;;;;;;26.08;11.60;;;;;;;;;;5054236;28;20770;-78
2022/11/01 03:18:23;;;;;;;23.83;11.55;;;;;;;;;;5054611;28;20045;-78
2022/11/01 03:21:14;;;;;;;25.35;13.77;;;;;;;;;;5054538;28;20049;-79
2022/11/01 03:24:07;;;;;;;29.98;13.27;;;;;;;;;;5060925;28;20475;-78
2022/11/01 03:27:01;;;;;;;24.85;12.52;;;;;;;;;;5060992;28;20040;-79
2022/11/01 03:29:55;;;;;;;29.65;13.15;;;;;;;;;;5054070;28;20041;-79
2022/11/01 03:32:46;;;;;;;25.33;13.48;;;;;;;;;;5054377;28;20044;-79
2022/11/01 03:35:35;;;;;;;24.15;13.10;;;;;;;;;;5061554;28;20041;-79
2022/11/01 03:38:26;;;;;;;27.20;13.30;;;;;;;;;;5053890;28;20053;-80
2022/11/01 03:41:16;;;;;;;25.33;13.85;;;;;;;;;;5060860;28;20053;-79
2022/11/01 03:44:02;;;;;;;30.55;13.32;;;;;;;;;;5053857;28;20041;-79
2022/11/01 03:46:48;;;;;;;25.90;14.32;;;;;;;;;;5060857;28;20045;-80
2022/11/01 03:49:33;;;;;;;33.45;14.18;;;;;;;;;;5059719;28;20045;-79
2022/11/01 03:52:18;;;;;;;29.92;14.18;;;;;;;;;;5060837;28;20040;-80
2022/11/01 03:55:16;;;;;;;31.52;14.57;;;;;;;;;;5053192;28;20045;-80
2022/11/01 03:58:02;;;;;;;27.42;13.00;;;;;;;;;;5060322;28;20048;-79
2022/11/01 04:00:49;;;;;;;29.90;14.45;;;;;;;;;;5060722;28;20037;-80
2022/11/01 04:03:34;;;;;;;32.05;16.23;;;;;;;;;;5060669;28;20036;-79
2022/11/01 04:06:20;;;;;;;45.15;19.85;;;;;;;;;;5060197;28;20491;-80
2022/11/01 04:09:06;;;;;;;40.22;18.40;;;;;;;;;;5060433;28;20036;-79
2022/11/01 04:11:51;;;;;;;35.78;15.48;;;;;;;;;;5059935;28;20384;-80
2022/11/01 04:20:44;;;;;;;23.85;13.02;;;;;;;;;;5060370;28;20052;-78
2022/11/01 04:23:29;;;;;;;26.60;11.38;;;;;;;;;;5060318;28;20045;-79
2022/11/01 04:26:19;;;;;;;22.05;11.10;;;;;;;;;;5053610;28;20041;-79
2022/11/01 04:29:03;;;;;;;22.40;11.35;;;;;;;;;;5064107;28;20040;-79
2022/11/01 04:31:48;;;;;;;21.00;10.73;;;;;;;;;;5057829;28;20065;-78
2022/11/01 04:34:43;;;;;;;22.48;11.13;;;;;;;;;;5057925;28;20045;-79
2022/11/01 04:37:30;;;;;;;33.55;10.95;;;;;;;;;;5063899;28;20380;-79
2022/11/01 04:40:16;;;;;;;18.05;10.32;;;;;;;;;;5063992;28;20037;-80
2022/11/01 04:43:01;;;;;;;28.55;10.80;;;;;;;;;;5057192;28;20040;-79
2022/11/01 04:45:57;;;;;;;23.05;11.20;;;;;;;;;;5057300;28;20403;-79
2022/11/01 04:48:42;;;;;;;22.23;11.18;;;;;;;;;;5057242;28;20328;-78
2022/11/01 04:51:27;;;;;;;26.65;12.00;;;;;;;;;;5057734;28;20052;-78
2022/11/01 04:54:12;;;;;;;22.95;10.50;;;;;;;;;;5063359;28;20049;-78
2022/11/01 04:56:58;;;;;;;28.33;10.88;;;;;;;;;;5057470;28;20045;-79
2022/11/01 04:59:44;;;;;;;18.73;9.85;;;;;;;;;;5057110;28;20041;-80
2022/11/01 05:02:29;;;;;;;18.60;9.23;;;;;;;;;;5057330;28;20049;-80
2022/11/01 05:05:17;;;;;;;20.52;9.30;;;;;;;;;;5063769;28;20403;-80
2022/11/01 05:08:03;;;;;;;16.75;8.90;;;;;;;;;;5056345;28;20045;-79
2022/11/01 05:10:52;;;;;;;25.58;10.00;;;;;;;;;;5057041;28;20472;-79
2022/11/01 05:13:37;;;;;;;23.10;10.20;;;;;;;;;;5063490;28;20036;-79
2022/11/01 05:16:22;;;;;;;20.92;11.13;;;;;;;;;;5062991;28;20041;-81
2022/11/01 05:19:08;;;;;;;23.92;11.00;;;;;;;;;;5058089;28;20388;-78
2022/11/01 05:21:53;;;;;;;20.00;10.65;;;;;;;;;;5063133;28;20049;-80
2022/11/01 05:24:39;;;;;;;24.00;11.60;;;;;;;;;;5056730;28;20040;-80
2022/11/01 05:27:24;;;;;;;20.08;11.00;;;;;;;;;;5056586;28;20037;-79
2022/11/01 05:30:10;;;;;;;23.77;11.15;;;;;;;;;;5064468;28;20041;-81
2022/11/01 05:32:59;;;;;;;25.80;10.93;;;;;;;;;;5073932;28;20040;-80
2022/11/01 05:35:44;;;;;;;28.83;11.25;;;;;;;;;;5083495;28;20032;-80
2022/11/01 05:38:30;;;;;;;24.00;11.18;;;;;;;;;;5075885;28;20044;-80
2022/11/01 05:41:14;;;;;;;29.60;15.55;;;;;;;;;;5083289;28;20040;-79
2022/11/01 05:44:00;;;;;;;26.55;13.82;;;;;;;;;;5082641;28;20044;-80
2022/11/01 05:46:46;;;;;;;30.25;14.30;;;;;;;;;;5075493;28;20052;-79
2022/11/01 05:49:31;;;;;;;24.33;15.00;;;;;;;;;;5075606;28;20032;-80
2022/11/01 05:52:17;;;;;;;31.27;15.25;;;;;;;;;;5073289;28;20045;-78
2022/11/01 05:55:02;;;;;;;32.85;16.67;;;;;;;;;;5056115;28;20049;-79
2022/11/01 05:57:47;;;;;;;26.98;14.85;;;;;;;;;;5071300;28;20044;-78
2022/11/01 06:00:33;;;;;;;25.55;15.13;;;;;;;;;;5079673;28;20045;-79
2022/11/01 06:03:18;;;;;;;37.78;16.90;;;;;;;;;;5079922;28;20052;-79
2022/11/01 06:06:04;;;;;;;37.50;18.55;;;;;;;;;;5075910;28;20484;-78
2022/11/01 06:08:49;;;;;;;40.65;17.48;;;;;;;;;;5055475;28;20040;-77
2022/11/01 06:11:35;;;;;;;29.10;18.27;;;;;;;;;;5077100;28;20040;-79
2022/11/01 06:14:21;;;;;;;37.13;20.48;;;;;;;;;;5075606;28;20040;-77
2022/11/01 06:17:07;;;;;;;35.45;19.58;;;;;;;;;;5082051;28;20088;-78
2022/11/01 06:19:53;;;;;;;44.28;20.08;;;;;;;;;;5082002;28;20056;-79
2022/11/01 06:22:38;;;;;;;38.55;19.88;;;;;;;;;;5080336;28;20044;-79
2022/11/01 06:25:27;;;;;;;43.85;21.42;;;;;;;;;;5082022;28;20495;-77
2022/11/01 06:28:12;;;;;;;43.70;22.38;;;;;;;;;;5080753;28;20036;-79
2022/11/01 06:31:02;;;;;;;39.00;21.42;;;;;;;;;;5073067;28;20483;-79
2022/11/01 06:33:49;;;;;;;47.40;21.52;;;;;;;;;;5081897;28;20044;-79
2022/11/01 06:36:34;;;;;;;46.63;20.58;;;;;;;;;;5081750;28;20468;-78
2022/11/01 06:39:20;;;;;;;39.38;21.90;;;;;;;;;;5081453;28;20040;-79
2022/11/01 06:42:05;;;;;;;45.47;23.08;;;;;;;;;;5081812;28;20040;-78
2022/11/01 06:44:51;;;;;;;48.28;24.63;;;;;;;;;;5077490;28;20467;-78
2022/11/01 06:47:37;;;;;;;47.55;24.95;;;;;;;;;;5074911;28;20036;-79
2022/11/01 06:50:22;;;;;;;53.20;23.95;;;;;;;;;;5077057;28;20040;-80
2022/11/01 06:53:08;;;;;;;47.00;24.75;;;;;;;;;;5080821;28;20044;-79
2022/11/01 06:55:53;;;;;;;55.65;27.05;;;;;;;;;;5081760;28;20052;-79
2022/11/01 06:58:39;;;;;;;40.50;26.92;;;;;;;;;;5081763;28;20037;-80
2022/11/01 07:01:25;;;;;;;41.70;23.17;;;;;;;;;;5081415;28;20036;-79
2022/11/01 07:04:10;;;;;;;35.92;20.73;;;;;;;;;;5074645;28;20070;-79
2022/11/01 07:06:56;;;;;;;33.85;21.55;;;;;;;;;;5073873;28;20056;-79
2022/11/01 07:09:41;;;;;;;32.80;20.38;;;;;;;;;;5083447;28;20028;-79
2022/11/01 07:12:27;;;;;;;35.60;20.20;;;;;;;;;;5073924;28;20032;-80
2022/11/01 07:15:13;;;;;;;33.47;20.60;;;;;;;;;;5080794;28;20048;-78
2022/11/01 07:18:00;;;;;;;35.05;20.58;;;;;;;;;;5081019;28;20044;-80
2022/11/01 07:20:46;;;;;;;33.00;20.55;;;;;;;;;;5080655;28;20048;-78
2022/11/01 07:23:31;;;;;;;45.85;22.70;;;;;;;;;;5081013;28;20040;-78
2022/11/01 07:26:17;;;;;;;36.63;22.05;;;;;;;;;;5081289;28;20424;-79
2022/11/01 07:29:02;;;;;;;32.40;20.98;;;;;;;;;;5074324;28;20037;-77
2022/11/01 07:31:48;;;;;;;32.33;19.65;;;;;;;;;;5080480;28;20040;-77
2022/11/01 07:34:34;;;;;;;35.80;20.27;;;;;;;;;;5080506;28;20040;-78
2022/11/01 07:37:19;;;;;;;37.05;22.10;;;;;;;;;;5080549;28;20048;-77
2022/11/01 07:40:05;;;;;;;43.60;22.88;;;;;;;;;;5080808;28;20040;-77
2022/11/01 07:42:50;;;;;;;35.05;21.70;;;;;;;;;;5080457;28;20048;-77
2022/11/01 07:45:36;;;;;;;42.33;22.88;;;;;;;;;;5079823;28;20048;-79
2022/11/01 07:48:21;;;;;;;40.97;22.75;;;;;;;;;;5079998;28;20040;-80
2022/11/01 07:51:08;;;;;;;38.17;22.98;;;;;;;;;;5075884;28;20487;-78
2022/11/01 07:53:53;;;;;;;39.33;21.73;;;;;;;;;;5080580;28;20040;-79
2022/11/01 07:56:39;;;;;;;39.85;23.10;;;;;;;;;;5080023;28;20041;-80
2022/11/01 07:59:25;;;;;;;45.50;21.63;;;;;;;;;;5080244;28;20070;-79
2022/11/01 08:02:10;;;;;;;35.53;20.92;;;;;;;;;;5079307;28;20391;-80
2022/11/01 08:04:55;;;;;;;44.28;20.27;;;;;;;;;;5073526;28;20036;-79
2022/11/01 08:07:41;;;;;;;32.00;19.75;;;;;;;;;;5080369;28;20048;-78
2022/11/01 08:10:27;;;;;;;33.33;18.35;;;;;;;;;;5079892;28;20040;-78
2022/11/01 08:13:21;;;;;;;32.13;18.60;;;;;;;;;;5079469;28;20044;-79
2022/11/01 08:16:06;;;;;;;30.10;17.40;;;;;;;;;;5079989;28;20036;-77
2022/11/01 08:18:52;;;;;;;29.55;16.73;;;;;;;;;;5080329;28;20048;-78
2022/11/01 08:21:37;;;;;;;29.77;16.42;;;;;;;;;;5080223;28;20371;-78
2022/11/01 08:24:23;;;;;;;29.25;15.65;;;;;;;;;;5078584;28;20052;-79
2022/11/01 08:27:08;;;;;;;30.30;15.65;;;;;;;;;;5073038;28;20460;-78
2022/11/01 08:29:54;;;;;;;22.67;13.48;;;;;;;;;;5079875;28;20044;-80
2022/11/01 08:32:39;;;;;;;25.70;15.00;;;;;;;;;;5073612;28;20396;-78
2022/11/01 08:35:24;;;;;;;32.78;15.07;;;;;;;;;;5080221;28;20048;-76
2022/11/01 08:38:10;;;;;;;21.65;12.32;;;;;;;;;;5079633;28;20044;-78
2022/11/01 08:40:55;;;;;;;21.88;12.07;;;;;;;;;;5079982;28;20366;-78
2022/11/01 08:43:41;;;;;;;25.13;12.25;;;;;;;;;;5080117;28;20052;-78
2022/11/01 08:46:27;;;;;;;18.48;10.48;;;;;;;;;;5080097;28;20048;-78
2022/11/01 08:49:12;;;;;;;18.55;10.82;;;;;;;;;;5073434;28;20363;-79
2022/11/01 08:51:58;;;;;;;16.05;9.80;;;;;;;;;;5079384;28;20052;-78
2022/11/01 08:54:43;;;;;;;19.38;9.23;;;;;;;;;;5080832;28;20049;-77
2022/11/01 08:57:29;;;;;;;18.98;10.00;;;;;;;;;;5079735;28;20048;-78
2022/11/01 09:00:15;;;;;;;22.02;11.02;;;;;;;;;;5079543;28;20048;-79
2022/11/01 09:03:00;;;;;;;15.90;9.40;;;;;;;;;;5079925;28;20470;-79
2022/11/01 09:05:45;;;;;;;24.27;11.20;;;;;;;;;;5079448;28;20048;-80
2022/11/01 09:08:30;;;;;;;19.27;11.27;;;;;;;;;;5079553;28;20036;-78
2022/11/01 09:11:16;;;;;;;24.20;12.52;;;;;;;;;;5079755;28;20468;-78
2022/11/01 09:14:02;;;;;;;26.90;12.38;;;;;;;;;;5081481;28;20372;-76
2022/11/01 09:16:47;;;;;;;22.10;12.50;;;;;;;;;;5083489;28;20041;-78
2022/11/01 09:19:33;;;;;;;23.98;12.13;;;;;;;;;;5076847;28;20040;-80
2022/11/01 09:22:18;;;;;;;20.23;11.93;;;;;;;;;;5083529;28;20040;-80
2022/11/01 09:25:04;;;;;;;26.20;11.48;;;;;;;;;;5083515;28;20045;-80
2022/11/01 09:27:49;;;;;;;24.15;10.80;;;;;;;;;;5082751;28;20036;-78
2022/11/01 09:30:34;;;;;;;17.83;9.98;;;;;;;;;;5083251;28;20040;-78
2022/11/01 09:33:22;;;;;;;17.15;10.27;;;;;;;;;;5082902;28;20387;-77
2022/11/01 09:36:07;;;;;;;17.98;10.18;;;;;;;;;;5083834;28;20045;-80
2022/11/01 09:38:54;;;;;;;20.73;9.93;;;;;;;;;;5084274;28;20387;-78
2022/11/01 09:41:46;;;;;;;20.70;9.90;;;;;;;;;;5082672;28;20049;-78
2022/11/01 09:44:35;;;;;;;22.45;8.98;;;;;;;;;;5083367;28;20040;-77
2022/11/01 09:47:28;;;;;;;18.38;8.73;;;;;;;;;;5082869;28;20040;-78
2022/11/01 09:50:52;;;;;;;15.90;8.35;;;;;;;;;;5080688;28;20460;-78
2022/11/01 09:53:38;;;;;;;16.80;8.65;;;;;;;;;;5080814;28;20435;-77
2022/11/01 09:56:50;;;;;;;18.15;8.38;;;;;;;;;;5082377;28;20045;-77
2022/11/01 10:00:07;;;;;;;17.85;7.82;;;;;;;;;;5082783;28;20048;-77
2022/11/01 10:03:32;;;;;;;18.48;8.00;;;;;;;;;;5082338;28;20048;-77
2022/11/01 10:06:22;;;;;;;18.50;6.95;;;;;;;;;;5076082;28;20040;-78
2022/11/01 10:09:44;;;;;;;19.38;7.65;;;;;;;;;;5081758;28;20048;-78
2022/11/01 10:12:40;;;;;;;12.68;7.18;;;;;;;;;;5082341;28;20040;-78
2022/11/01 10:15:57;;;;;;;17.00;7.75;;;;;;;;;;5082186;28;20064;-78
2022/11/01 10:19:00;;;;;;;17.45;7.75;;;;;;;;;;5082287;28;20487;-79
2022/11/01 10:21:53;;;;;;;17.13;7.28;;;;;;;;;;5082437;28;20048;-77
2022/11/01 10:24:45;;;;;;;16.58;7.70;;;;;;;;;;5081357;28;20045;-77
2022/11/01 10:27:53;;;;;;;22.85;7.95;;;;;;;;;;5075346;28;20044;-77
2022/11/01 10:30:47;;;;;;;23.02;7.32;;;;;;;;;;5081891;28;20456;-77
2022/11/01 10:33:37;;;;;;;14.82;7.85;;;;;;;;;;5075206;28;20049;-78
2022/11/01 10:36:29;;;;;;;20.85;8.18;;;;;;;;;;5081571;28;20044;-78
2022/11/01 10:39:49;;;;;;;17.98;8.73;;;;;;;;;;5081906;28;20167;-80
2022/11/01 10:42:34;;;;;;;19.67;8.18;;;;;;;;;;5081470;28;20040;-79
2022/11/01 10:45:22;;;;;;;21.70;9.35;;;;;;;;;;5081389;28;20060;-79
2022/11/01 10:48:14;;;;;;;24.55;8.82;;;;;;;;;;5081373;28;20371;-80
2022/11/01 10:51:03;;;;;;;16.97;9.10;;;;;;;;;;5076999;28;20048;-79
2022/11/01 10:53:54;;;;;;;20.10;9.50;;;;;;;;;;5081598;28;20040;-80
2022/11/01 10:56:43;;;;;;;23.98;10.18;;;;;;;;;;5081449;28;20049;-79
2022/11/01 10:59:34;;;;;;;20.92;9.77;;;;;;;;;;5081527;28;20037;-78
2022/11/01 11:02:24;;;;;;;23.88;9.50;;;;;;;;;;5082021;28;20048;-77
2022/11/01 11:05:14;;;;;;;23.58;10.20;;;;;;;;;;5081841;28;20036;-78
2022/11/01 11:08:03;;;;;;;18.95;9.32;;;;;;;;;;5080959;28;20040;-78
2022/11/01 11:10:48;;;;;;;21.17;9.80;;;;;;;;;;5074678;28;20460;-78
2022/11/01 11:13:34;;;;;;;19.95;10.02;;;;;;;;;;5081834;28;20040;-81
2022/11/01 11:16:39;;;;;;;20.67;9.85;;;;;;;;;;5074814;28;20037;-80
2022/11/01 11:19:31;;;;;;;23.02;9.65;;;;;;;;;;5074211;28;20040;-78
2022/11/01 11:22:21;;;;;;;21.38;9.98;;;;;;;;;;5081456;28;20384;-76
2022/11/01 11:25:14;;;;;;;17.48;8.45;;;;;;;;;;5074302;28;20060;-81
2022/11/01 11:27:59;;;;;;;24.73;9.00;;;;;;;;;;5080934;28;20045;-79
2022/11/01 11:30:44;;;;;;;29.65;9.48;;;;;;;;;;5073268;28;20048;-78
2022/11/01 11:33:29;;;;;;;20.33;9.88;;;;;;;;;;5073812;28;20040;-78
2022/11/01 11:36:14;;;;;;;23.60;9.20;;;;;;;;;;5074066;28;20036;-78
2022/11/01 11:39:01;;;;;;;18.50;8.57;;;;;;;;;;5080405;28;20044;-77
2022/11/01 11:41:46;;;;;;;25.90;9.00;;;;;;;;;;5080685;28;20383;-78
2022/11/01 11:44:50;;;;;;;19.85;8.60;;;;;;;;;;5080770;28;20040;-78
2022/11/01 11:47:39;;;;;;;14.82;8.05;;;;;;;;;;5081221;28;20048;-78
2022/11/01 11:50:31;;;;;;;16.98;7.82;;;;;;;;;;5077446;28;20044;-77
2022/11/01 11:53:21;;;;;;;21.50;8.05;;;;;;;;;;5080154;28;20235;-77
2022/11/01 11:56:08;;;;;;;22.50;8.18;;;;;;;;;;5080823;28;20045;-78
2022/11/01 11:58:55;;;;;;;17.92;7.75;;;;;;;;;;5080590;28;20048;-79
2022/11/01 12:01:41;;;;;;;17.52;8.60;;;;;;;;;;5080194;28;20040;-79
2022/11/01 12:04:44;;;;;;;15.63;7.93;;;;;;;;;;5080634;28;20044;-79
2022/11/01 12:07:35;;;;;;;13.60;7.88;;;;;;;;;;5073714;28;20044;-78
2022/11/01 12:10:33;;;;;;;22.92;8.30;;;;;;;;;;5080338;28;20033;-79
2022/11/01 12:13:30;;;;;;;19.70;8.73;;;;;;;;;;5080208;28;20045;-78
2022/11/01 12:16:23;;;;;;;19.52;8.07;;;;;;;;;;5070153;28;20049;-78
2022/11/01 12:19:28;;;;;;;15.40;7.30;;;;;;;;;;5069584;28;20044;-79
2022/11/01 12:22:14;;;;;;;17.20;6.90;;;;;;;;;;5073403;28;20040;-79
2022/11/01 12:25:04;;;;;;;24.10;7.28;;;;;;;;;;5080390;28;20040;-79
2022/11/01 12:28:03;;;;;;;18.25;7.00;;;;;;;;;;5080236;28;20049;-80
2022/11/01 12:30:55;;;;;;;16.38;7.18;;;;;;;;;;5082257;28;20048;-79
2022/11/01 12:33:44;;;;;;;17.17;7.45;;;;;;;;;;5073782;28;20476;-79
2022/11/01 12:36:45;;;;;;;14.90;6.28;;;;;;;;;;5072993;28;20395;-79
2022/11/01 12:39:49;;;;;;;14.80;6.07;;;;;;;;;;5069631;28;20388;-80
2022/11/01 12:42:45;;;;;;;19.17;6.60;;;;;;;;;;5079732;28;20040;-79
2022/11/01 12:45:44;;;;;;;17.48;7.35;;;;;;;;;;5085741;28;20040;-78
2022/11/01 12:48:36;;;;;;;20.65;7.05;;;;;;;;;;5100912;28;20044;-79
2022/11/01 12:51:29;;;;;;;24.67;6.60;;;;;;;;;;5090342;28;20040;-80
2022/11/01 12:54:27;;;;;;;19.05;7.38;;;;;;;;;;5074139;28;20040;-79
2022/11/01 12:57:15;;;;;;;16.60;7.68;;;;;;;;;;5075145;28;20468;-78
2022/11/01 13:00:03;;;;;;;23.17;8.52;;;;;;;;;;5082844;28;20050;-79
2022/11/01 13:03:16;;;;;;;18.13;7.60;;;;;;;;;;5083832;28;20460;-79
2022/11/01 13:06:04;;;;;;;17.35;7.63;;;;;;;;;;5076208;28;20115;-79
2022/11/01 13:08:58;;;;;;;16.95;8.13;;;;;;;;;;5063739;28;20415;-80
2022/11/01 13:11:59;;;;;;;20.38;8.50;;;;;;;;;;5063722;28;20071;-82
2022/11/01 13:14:58;;;;;;;17.13;7.47;;;;;;;;;;5070566;28;20379;-79
2022/11/01 13:17:58;;;;;;;20.95;8.38;;;;;;;;;;5072369;28;20044;-78
2022/11/01 13:21:01;;;;;;;16.48;8.32;;;;;;;;;;5072771;28;20036;-78
2022/11/01 13:23:58;;;;;;;18.88;8.63;;;;;;;;;;5078974;28;20048;-79
2022/11/01 13:26:53;;;;;;;23.15;7.95;;;;;;;;;;5074368;28;20040;-78
2022/11/01 13:29:48;;;;;;;23.58;9.88;;;;;;;;;;5082346;28;20037;-79
2022/11/01 13:32:47;;;;;;;30.35;10.80;;;;;;;;;;5075032;28;20040;-78
2022/11/01 13:35:43;;;;;;;28.58;12.55;;;;;;;;;;5062597;28;20040;-78
2022/11/01 13:38:43;;;;;;;26.52;11.82;;;;;;;;;;5076748;28;20051;-78
2022/11/01 13:41:44;;;;;;;15.77;8.23;;;;;;;;;;5069403;28;20037;-79
2022/11/01 13:44:33;;;;;;;21.45;8.45;;;;;;;;;;5078803;28;20040;-79
2022/11/01 13:47:43;;;;;;;18.42;8.00;;;;;;;;;;5081858;28;20052;-78
2022/11/01 13:50:42;;;;;;;20.23;8.65;;;;;;;;;;5077214;28;20052;-78
2022/11/01 13:53:37;;;;;;;20.80;9.52;;;;;;;;;;5081420;28;20041;-78
2022/11/01 13:56:30;;;;;;;25.77;10.55;;;;;;;;;;5084127;28;20384;-78
2022/11/01 13:59:30;;;;;;;19.05;9.50;;;;;;;;;;5082439;28;20048;-78
2022/11/01 14:02:22;;;;;;;25.55;10.38;;;;;;;;;;5082424;28;20384;-79
2022/11/01 14:05:09;;;;;;;32.08;11.43;;;;;;;;;;5082774;28;20044;-79
2022/11/01 14:08:27;;;;;;;31.23;14.13;;;;;;;;;;5082252;28;20036;-79
2022/11/01 14:11:55;;;;;;;31.20;15.68;;;;;;;;;;5082424;28;20040;-79
2022/11/01 14:14:41;;;;;;;32.40;15.30;;;;;;;;;;5070256;28;20053;-79
2022/11/01 14:17:27;;;;;;;35.10;16.30;;;;;;;;;;5075658;28;20040;-79
2022/11/01 14:20:13;;;;;;;29.05;17.73;;;;;;;;;;5082440;28;20091;-79
2022/11/01 14:23:30;;;;;;;38.00;17.80;;;;;;;;;;5068283;28;20029;-79
2022/11/01 14:26:19;;;;;;;36.17;17.90;;;;;;;;;;5080151;28;20379;-78
2022/11/01 14:29:09;;;;;;;33.30;17.85;;;;;;;;;;5080382;28;20052;-80
2022/11/01 14:31:56;;;;;;;36.85;17.15;;;;;;;;;;5079774;28;20040;-78
2022/11/01 14:34:44;;;;;;;33.63;16.33;;;;;;;;;;5075270;28;20391;-79
2022/11/01 14:37:36;;;;;;;30.58;14.60;;;;;;;;;;5055485;28;20045;-78
2022/11/01 14:40:33;;;;;;;31.38;13.77;;;;;;;;;;5075540;28;20380;-79
2022/11/01 14:43:39;;;;;;;29.23;12.90;;;;;;;;;;5077722;28;20044;-80
2022/11/01 14:46:26;;;;;;;34.63;14.65;;;;;;;;;;5080051;28;20475;-79
2022/11/01 14:49:17;;;;;;;31.42;13.68;;;;;;;;;;5078921;28;20387;-78
2022/11/01 14:52:24;;;;;;;30.30;12.40;;;;;;;;;;5080201;28;20040;-78
2022/11/01 14:55:22;;;;;;;27.85;12.60;;;;;;;;;;5081290;28;20040;-76
2022/11/01 14:58:19;;;;;;;35.60;12.55;;;;;;;;;;5081515;28;20483;-78
2022/11/01 15:01:09;;;;;;;26.05;11.40;;;;;;;;;;5081633;28;20044;-78
2022/11/01 15:03:59;;;;;;;38.80;12.25;;;;;;;;;;5081328;28;20048;-79
2022/11/01 15:06:45;;;;;;;35.65;12.68;;;;;;;;;;5081493;28;20044;-79
2022/11/01 15:09:31;;;;;;;25.52;12.57;;;;;;;;;;5073293;28;20044;-79
2022/11/01 15:12:18;;;;;;;35.78;12.77;;;;;;;;;;5081141;28;20048;-78
2022/11/01 15:15:04;;;;;;;46.72;13.80;;;;;;;;;;5080162;28;20032;-78
2022/11/01 15:18:13;;;;;;;47.85;20.10;;;;;;;;;;5080451;28;20482;-79
2022/11/01 15:20:59;;;;;;;29.42;15.70;;;;;;;;;;5060860;28;20041;-81
2022/11/01 15:23:47;;;;;;;41.58;19.90;;;;;;;;;;5082777;28;20039;-78
2022/11/01 15:26:33;;;;;;;54.10;23.52;;;;;;;;;;5085524;28;20044;-79
2022/11/01 15:29:23;;;;;;;69.22;29.17;;;;;;;;;;5074075;28;20036;-80
2022/11/01 15:32:38;;;;;;;121.45;46.10;;;;;;;;;;5073570;28;20044;-80
2022/11/01 15:35:25;;;;;;;196.18;78.57;;;;;;;;;;5053025;28;20049;-79
2022/11/01 15:38:16;;;;;;;197.80;75.00;;;;;;;;;;5060733;28;20053;-78
2022/11/01 15:41:30;;;;;;;157.18;61.95;;;;;;;;;;5054668;28;20045;-79
2022/11/01 15:44:28;;;;;;;131.60;52.03;;;;;;;;;;5060502;28;20044;-78
2022/11/01 15:47:26;;;;;;;110.68;46.78;;;;;;;;;;5067370;28;20044;-79
2022/11/01 15:50:12;;;;;;;96.10;39.38;;;;;;;;;;5067303;28;20049;-78
2022/11/01 15:52:59;;;;;;;141.35;66.90;;;;;;;;;;5069888;28;20048;-78
2022/11/01 15:55:51;;;;;;;134.80;55.17;;;;;;;;;;5073236;28;20036;-79
2022/11/01 15:58:42;;;;;;;140.05;61.75;;;;;;;;;;5077900;28;20040;-80
2022/11/01 16:01:27;;;;;;;106.07;45.42;;;;;;;;;;5079642;28;20052;-79
2022/11/01 16:04:15;;;;;;;89.53;43.33;;;;;;;;;;5080658;28;20045;-77
2022/11/01 16:07:05;;;;;;;119.53;50.10;;;;;;;;;;5076782;28;20084;-77
2022/11/01 16:09:58;;;;;;;129.00;55.65;;;;;;;;;;5069880;28;20044;-78
2022/11/01 16:12:44;;;;;;;171.52;75.85;;;;;;;;;;5077545;28;20036;-77
2022/11/01 16:15:32;;;;;;;158.20;66.20;;;;;;;;;;5078570;28;20036;-77
2022/11/01 16:18:23;;;;;;;209.80;89.55;;;;;;;;;;5078466;28;20052;-79
2022/11/01 16:21:20;;;;;;;297.05;122.57;;;;;;;;;;5077855;28;20063;-77
2022/11/01 16:24:14;;;;;;;256.98;112.10;;;;;;;;;;5077351;28;20464;-79
2022/11/01 16:27:02;;;;;;;;;;;;;;;;;;5076281;28;20364;-78
2022/11/01 16:29:50;;;;;;;370.85;182.70;;;;;;;;;;5077034;28;19916;-79
2022/11/01 16:32:36;;;;;;;350.67;145.75;;;;;;;;;;5076531;28;20040;-78
2022/11/01 16:35:32;;;;;;;308.58;121.57;;;;;;;;;;5076131;28;20467;-79
2022/11/01 16:38:36;;;;;;;275.30;110.70;;;;;;;;;;5080214;28;20036;-78